sensor_id;sensor_type;location;lat;lon;timestamp;pressure;altitude;pressure_sealevel;temperature;humidity
37878;BME280;23715;53.652;8.516;2023-09-19T00:03:01;100398.81;;;21.19;100.00
37878;BME280;23715;53.652;8.516;2023-09-19T00:07:57;100398.21;;;21.04;100.00
37878;BME280;23715;53.652;8.516;2023-09-19T00:12:57;100404.50;;;20.98;100.00
37878;BME280;23715;53.652;8.516;2023-09-19T00:18:04;100406.42;;;20.91;100.00
37878;BME280;23715;53.652;8.516;2023-09-19T00:23:07;100402.09;;;20.99;100.00
37878;BME280;23715;53.652;8.516;2023-09-19T00:28:09;100415.44;;;20.84;100.00
37878;BME280;23715;53.652;8.516;2023-09-19T00:33:11;100422.89;;;20.86;100.00
37878;BME280;23715;53.652;8.516;2023-09-19T00:38:12;100428.98;;;20.75;100.00
37878;BME280;23715;53.652;8.516;2023-09-19T00:43:16;100416.92;;;20.74;100.00
37878;BME280;23715;53.652;8.516;2023-09-19T00:48:16;100423.78;;;20.56;100.00
37878;BME280;23715;53.652;8.516;2023-09-19T00:53:20;100429.86;;;20.45;100.00
37878;BME280;23715;53.652;8.516;2023-09-19T00:58:21;100447.89;;;20.63;100.00
37878;BME280;23715;53.652;8.516;2023-09-19T01:03:22;100440.48;;;20.44;100.00
37878;BME280;23715;53.652;8.516;2023-09-19T01:08:23;100439.52;;;20.34;100.00
37878;BME280;23715;53.652;8.516;2023-09-19T01:13:29;100457.53;;;20.22;100.00
37878;BME280;23715;53.652;8.516;2023-09-19T01:33:55;100462.80;;;19.99;100.00
37878;BME280;23715;53.652;8.516;2023-09-19T01:38:59;100468.59;;;20.24;100.00
37878;BME280;23715;53.652;8.516;2023-09-19T01:44:00;100479.00;;;19.83;100.00
37878;BME280;23715;53.652;8.516;2023-09-19T01:49:09;100493.39;;;19.88;100.00
37878;BME280;23715;53.652;8.516;2023-09-19T01:54:10;100492.25;;;19.58;100.00
37878;BME280;23715;53.652;8.516;2023-09-19T01:59:12;100504.17;;;19.79;100.00
37878;BME280;23715;53.652;8.516;2023-09-19T02:04:11;100505.39;;;19.76;100.00
37878;BME280;23715;53.652;8.516;2023-09-19T02:09:14;100504.97;;;19.62;100.00
37878;BME280;23715;53.652;8.516;2023-09-19T02:14:13;100509.71;;;19.36;100.00
37878;BME280;23715;53.652;8.516;2023-09-19T02:19:13;100518.72;;;19.47;100.00
37878;BME280;23715;53.652;8.516;2023-09-19T02:24:15;100522.02;;;19.42;100.00
37878;BME280;23715;53.652;8.516;2023-09-19T02:29:14;100535.70;;;19.60;100.00
37878;BME280;23715;53.652;8.516;2023-09-19T02:34:14;100526.43;;;19.54;100.00
37878;BME280;23715;53.652;8.516;2023-09-19T02:39:15;100531.33;;;19.37;100.00
37878;BME280;23715;53.652;8.516;2023-09-19T02:44:14;100524.30;;;19.39;100.00
37878;BME280;23715;53.652;8.516;2023-09-19T02:49:14;100522.93;;;19.39;100.00
37878;BME280;23715;53.652;8.516;2023-09-19T02:54:20;100523.62;;;19.19;100.00
37878;BME280;23715;53.652;8.516;2023-09-19T02:59:20;100522.21;;;19.02;100.00
37878;BME280;23715;53.652;8.516;2023-09-19T03:04:19;100517.14;;;18.99;100.00
37878;BME280;23715;53.652;8.516;2023-09-19T03:09:20;100519.22;;;18.97;100.00
37878;BME280;23715;53.652;8.516;2023-09-19T03:14:21;100520.51;;;19.01;100.00
37878;BME280;23715;53.652;8.516;2023-09-19T03:19:21;100533.23;;;18.83;100.00
37878;BME280;23715;53.652;8.516;2023-09-19T03:24:22;100526.42;;;18.83;100.00
37878;BME280;23715;53.652;8.516;2023-09-19T03:29:23;100533.36;;;18.85;100.00
37878;BME280;23715;53.652;8.516;2023-09-19T03:34:24;100541.20;;;18.95;100.00
37878;BME280;23715;53.652;8.516;2023-09-19T03:39:23;100530.77;;;18.99;100.00
37878;BME280;23715;53.652;8.516;2023-09-19T03:44:25;100532.09;;;18.77;100.00
37878;BME280;23715;53.652;8.516;2023-09-19T03:49:24;100534.11;;;18.79;100.00
37878;BME280;23715;53.652;8.516;2023-09-19T03:54:24;100539.78;;;18.63;100.00
37878;BME280;23715;53.652;8.516;2023-09-19T03:59:24;100541.14;;;18.63;100.00
37878;BME280;23715;53.652;8.516;2023-09-19T04:04:24;100539.63;;;18.49;100.00
37878;BME280;23715;53.652;8.516;2023-09-19T04:09:26;100545.91;;;18.65;100.00
37878;BME280;23715;53.652;8.516;2023-09-19T04:14:25;100555.69;;;18.70;100.00
37878;BME280;23715;53.652;8.516;2023-09-19T04:19:27;100549.84;;;18.62;100.00
37878;BME280;23715;53.652;8.516;2023-09-19T04:24:27;100542.36;;;18.49;100.00
37878;BME280;23715;53.652;8.516;2023-09-19T04:29:26;100557.30;;;18.53;100.00
37878;BME280;23715;53.652;8.516;2023-09-19T04:34:27;100554.77;;;18.63;100.00
37878;BME280;23715;53.652;8.516;2023-09-19T04:39:27;100564.27;;;18.67;100.00
37878;BME280;23715;53.652;8.516;2023-09-19T04:44:27;100562.53;;;18.55;100.00
37878;BME280;23715;53.652;8.516;2023-09-19T04:49:26;100571.48;;;18.34;100.00
37878;BME280;23715;53.652;8.516;2023-09-19T04:54:26;100576.63;;;18.33;100.00
37878;BME280;23715;53.652;8.516;2023-09-19T04:59:25;100592.95;;;18.33;100.00
37878;BME280;23715;53.652;8.516;2023-09-19T05:04:26;100604.73;;;18.44;100.00
37878;BME280;23715;53.652;8.516;2023-09-19T05:09:26;100609.37;;;18.25;100.00
37878;BME280;23715;53.652;8.516;2023-09-19T05:14:26;100595.91;;;18.42;100.00
37878;BME280;23715;53.652;8.516;2023-09-19T05:19:25;100596.46;;;18.23;100.00
37878;BME280;23715;53.652;8.516;2023-09-19T05:24:25;100608.45;;;18.18;100.00
37878;BME280;23715;53.652;8.516;2023-09-19T05:29:25;100619.13;;;18.19;100.00
37878;BME280;23715;53.652;8.516;2023-09-19T05:34:26;100618.77;;;18.37;100.00
37878;BME280;23715;53.652;8.516;2023-09-19T05:39:28;100603.35;;;18.59;100.00
37878;BME280;23715;53.652;8.516;2023-09-19T05:44:27;100617.16;;;18.43;100.00
37878;BME280;23715;53.652;8.516;2023-09-19T05:49:29;100620.66;;;18.62;100.00
37878;BME280;23715;53.652;8.516;2023-09-19T05:54:28;100618.89;;;18.40;100.00
37878;BME280;23715;53.652;8.516;2023-09-19T05:59:28;100618.23;;;18.38;100.00
37878;BME280;23715;53.652;8.516;2023-09-19T06:04:31;100628.47;;;18.21;100.00
37878;BME280;23715;53.652;8.516;2023-09-19T06:09:32;100631.72;;;18.20;100.00
37878;BME280;23715;53.652;8.516;2023-09-19T06:14:33;100625.62;;;18.33;100.00
37878;BME280;23715;53.652;8.516;2023-09-19T06:19:34;100645.28;;;18.24;100.00
37878;BME280;23715;53.652;8.516;2023-09-19T06:24:34;100650.36;;;18.27;100.00
37878;BME280;23715;53.652;8.516;2023-09-19T06:29:34;100640.88;;;18.23;100.00
37878;BME280;23715;53.652;8.516;2023-09-19T06:34:35;100652.48;;;17.83;100.00
37878;BME280;23715;53.652;8.516;2023-09-19T06:39:43;100659.19;;;17.95;100.00
37878;BME280;23715;53.652;8.516;2023-09-19T06:44:43;100661.33;;;18.34;100.00
37878;BME280;23715;53.652;8.516;2023-09-19T06:49:42;100671.73;;;18.30;100.00
37878;BME280;23715;53.652;8.516;2023-09-19T06:54:46;100669.59;;;18.26;100.00
37878;BME280;23715;53.652;8.516;2023-09-19T06:59:47;100678.73;;;18.14;100.00
37878;BME280;23715;53.652;8.516;2023-09-19T07:04:48;100694.87;;;18.30;100.00
37878;BME280;23715;53.652;8.516;2023-09-19T07:09:48;100691.09;;;18.36;100.00
37878;BME280;23715;53.652;8.516;2023-09-19T07:14:49;100705.73;;;18.20;100.00
37878;BME280;23715;53.652;8.516;2023-09-19T07:19:49;100705.64;;;18.28;100.00
37878;BME280;23715;53.652;8.516;2023-09-19T07:24:51;100710.65;;;18.20;100.00
37878;BME280;23715;53.652;8.516;2023-09-19T07:29:51;100706.34;;;18.26;100.00
37878;BME280;23715;53.652;8.516;2023-09-19T07:34:54;100714.23;;;18.36;100.00
37878;BME280;23715;53.652;8.516;2023-09-19T07:45:06;100711.37;;;18.33;100.00
37878;BME280;23715;53.652;8.516;2023-09-19T07:50:02;100720.71;;;18.49;100.00
37878;BME280;23715;53.652;8.516;2023-09-19T07:55:02;100719.88;;;18.64;100.00
37878;BME280;23715;53.652;8.516;2023-09-19T08:00:11;100710.64;;;18.54;100.00
37878;BME280;23715;53.652;8.516;2023-09-19T08:05:13;100718.92;;;18.42;100.00
37878;BME280;23715;53.652;8.516;2023-09-19T08:10:09;100716.39;;;18.55;100.00
37878;BME280;23715;53.652;8.516;2023-09-19T08:15:17;100724.75;;;18.68;100.00
37878;BME280;23715;53.652;8.516;2023-09-19T08:20:18;100727.92;;;18.61;100.00
37878;BME280;23715;53.652;8.516;2023-09-19T08:25:21;100729.78;;;18.76;100.00
37878;BME280;23715;53.652;8.516;2023-09-19T08:30:21;100719.13;;;18.70;100.00
37878;BME280;23715;53.652;8.516;2023-09-19T08:35:26;100710.80;;;18.86;100.00
37878;BME280;23715;53.652;8.516;2023-09-19T08:40:26;100720.23;;;18.65;100.00
37878;BME280;23715;53.652;8.516;2023-09-19T08:45:27;100717.76;;;18.70;100.00
37878;BME280;23715;53.652;8.516;2023-09-19T08:50:27;100721.34;;;19.00;100.00
37878;BME280;23715;53.652;8.516;2023-09-19T08:55:27;100732.42;;;18.99;100.00
37878;BME280;23715;53.652;8.516;2023-09-19T09:00:27;100726.43;;;18.88;100.00
37878;BME280;23715;53.652;8.516;2023-09-19T09:05:29;100730.62;;;18.80;100.00
37878;BME280;23715;53.652;8.516;2023-09-19T09:10:30;100737.27;;;18.92;100.00
37878;BME280;23715;53.652;8.516;2023-09-19T09:15:35;100732.52;;;19.05;100.00
37878;BME280;23715;53.652;8.516;2023-09-19T09:20:33;100741.61;;;19.27;100.00
37878;BME280;23715;53.652;8.516;2023-09-19T09:25:46;100737.94;;;19.57;100.00
37878;BME280;23715;53.652;8.516;2023-09-19T09:30:48;100744.50;;;19.62;100.00
37878;BME280;23715;53.652;8.516;2023-09-19T09:35:49;100748.61;;;19.84;100.00
37878;BME280;23715;53.652;8.516;2023-09-19T09:40:51;100736.98;;;19.86;100.00
37878;BME280;23715;53.652;8.516;2023-09-19T09:46:15;100736.41;;;19.80;100.00
37878;BME280;23715;53.652;8.516;2023-09-19T09:50:54;100737.50;;;19.75;100.00
37878;BME280;23715;53.652;8.516;2023-09-19T10:01:03;100733.30;;;19.83;100.00
37878;BME280;23715;53.652;8.516;2023-09-19T10:06:12;100733.62;;;19.73;100.00
37878;BME280;23715;53.652;8.516;2023-09-19T10:11:24;100731.86;;;19.87;100.00
37878;BME280;23715;53.652;8.516;2023-09-19T10:16:26;100731.17;;;20.17;100.00
37878;BME280;23715;53.652;8.516;2023-09-19T10:21:28;100739.09;;;20.23;100.00
37878;BME280;23715;53.652;8.516;2023-09-19T10:26:29;100734.55;;;20.19;100.00
37878;BME280;23715;53.652;8.516;2023-09-19T10:31:35;100731.85;;;20.26;100.00
37878;BME280;23715;53.652;8.516;2023-09-19T10:36:37;100738.13;;;20.37;100.00
37878;BME280;23715;53.652;8.516;2023-09-19T10:41:42;100731.39;;;20.33;100.00
37878;BME280;23715;53.652;8.516;2023-09-19T10:46:42;100717.66;;;20.37;100.00
37878;BME280;23715;53.652;8.516;2023-09-19T10:51:43;100714.42;;;20.55;100.00
37878;BME280;23715;53.652;8.516;2023-09-19T10:56:48;100720.89;;;20.47;100.00
37878;BME280;23715;53.652;8.516;2023-09-19T11:01:56;100702.97;;;20.56;100.00
37878;BME280;23715;53.652;8.516;2023-09-19T11:07:06;100686.43;;;20.64;100.00
37878;BME280;23715;53.652;8.516;2023-09-19T11:17:42;100719.47;;;20.69;100.00
37878;BME280;23715;53.652;8.516;2023-09-19T11:38:56;100692.34;;;20.67;100.00
37878;BME280;23715;53.652;8.516;2023-09-19T11:44:34;100690.47;;;20.68;100.00
37878;BME280;23715;53.652;8.516;2023-09-19T11:49:38;100674.37;;;20.69;100.00
37878;BME280;23715;53.652;8.516;2023-09-19T11:54:40;100676.63;;;20.59;100.00
37878;BME280;23715;53.652;8.516;2023-09-19T11:59:43;100670.83;;;20.75;100.00
37878;BME280;23715;53.652;8.516;2023-09-19T12:04:45;100665.70;;;20.83;100.00
37878;BME280;23715;53.652;8.516;2023-09-19T12:09:49;100670.19;;;20.73;100.00
37878;BME280;23715;53.652;8.516;2023-09-19T12:14:51;100667.94;;;20.83;100.00
37878;BME280;23715;53.652;8.516;2023-09-19T12:19:52;100662.72;;;20.95;100.00
37878;BME280;23715;53.652;8.516;2023-09-19T12:24:53;100648.99;;;21.06;100.00
37878;BME280;23715;53.652;8.516;2023-09-19T12:29:56;100646.13;;;21.03;100.00
37878;BME280;23715;53.652;8.516;2023-09-19T12:35:03;100643.97;;;20.61;100.00
37878;BME280;23715;53.652;8.516;2023-09-19T12:40:07;100631.24;;;20.82;100.00
37878;BME280;23715;53.652;8.516;2023-09-19T12:45:20;100616.28;;;21.02;100.00
37878;BME280;23715;53.652;8.516;2023-09-19T12:50:25;100597.75;;;20.91;100.00
37878;BME280;23715;53.652;8.516;2023-09-19T12:55:28;100603.88;;;21.06;100.00
37878;BME280;23715;53.652;8.516;2023-09-19T13:00:39;100583.91;;;21.12;100.00
37878;BME280;23715;53.652;8.516;2023-09-19T13:05:47;100573.70;;;21.17;100.00
37878;BME280;23715;53.652;8.516;2023-09-19T13:11:02;100572.13;;;21.18;100.00
37878;BME280;23715;53.652;8.516;2023-09-19T13:16:04;100564.36;;;21.15;100.00
37878;BME280;23715;53.652;8.516;2023-09-19T13:21:09;100555.48;;;20.93;100.00
37878;BME280;23715;53.652;8.516;2023-09-19T13:26:12;100556.15;;;20.64;100.00
37878;BME280;23715;53.652;8.516;2023-09-19T13:31:12;100553.22;;;20.73;100.00
37878;BME280;23715;53.652;8.516;2023-09-19T13:36:16;100578.12;;;20.56;100.00
37878;BME280;23715;53.652;8.516;2023-09-19T13:41:21;100550.71;;;20.54;100.00
37878;BME280;23715;53.652;8.516;2023-09-19T13:46:21;100564.17;;;20.55;100.00
37878;BME280;23715;53.652;8.516;2023-09-19T13:51:23;100558.75;;;20.93;100.00
37878;BME280;23715;53.652;8.516;2023-09-19T13:56:24;100550.89;;;20.70;100.00
37878;BME280;23715;53.652;8.516;2023-09-19T14:01:26;100546.22;;;20.88;100.00
37878;BME280;23715;53.652;8.516;2023-09-19T14:06:27;100538.16;;;21.10;100.00
37878;BME280;23715;53.652;8.516;2023-09-19T14:11:29;100537.20;;;21.07;100.00
37878;BME280;23715;53.652;8.516;2023-09-19T14:16:34;100545.89;;;20.86;100.00
37878;BME280;23715;53.652;8.516;2023-09-19T14:21:40;100533.62;;;21.13;100.00
37878;BME280;23715;53.652;8.516;2023-09-19T14:26:39;100533.95;;;21.14;100.00
37878;BME280;23715;53.652;8.516;2023-09-19T14:31:43;100525.81;;;20.90;100.00
37878;BME280;23715;53.652;8.516;2023-09-19T14:36:43;100531.30;;;21.03;100.00
37878;BME280;23715;53.652;8.516;2023-09-19T14:41:48;100533.41;;;21.01;100.00
37878;BME280;23715;53.652;8.516;2023-09-19T14:46:49;100529.00;;;21.07;100.00
37878;BME280;23715;53.652;8.516;2023-09-19T14:51:49;100511.40;;;20.79;100.00
37878;BME280;23715;53.652;8.516;2023-09-19T14:56:54;100525.63;;;20.85;100.00
37878;BME280;23715;53.652;8.516;2023-09-19T15:01:59;100540.35;;;20.91;100.00
37878;BME280;23715;53.652;8.516;2023-09-19T15:07:04;100528.92;;;20.67;100.00
37878;BME280;23715;53.652;8.516;2023-09-19T15:12:06;100506.72;;;20.35;100.00
37878;BME280;23715;53.652;8.516;2023-09-19T15:17:10;100552.13;;;20.43;100.00
37878;BME280;23715;53.652;8.516;2023-09-19T15:22:16;100535.24;;;20.43;100.00
37878;BME280;23715;53.652;8.516;2023-09-19T15:27:15;100532.86;;;20.27;100.00
37878;BME280;23715;53.652;8.516;2023-09-19T15:32:18;100529.55;;;20.38;100.00
37878;BME280;23715;53.652;8.516;2023-09-19T15:37:19;100522.33;;;20.48;100.00
37878;BME280;23715;53.652;8.516;2023-09-19T15:42:21;100519.39;;;20.74;100.00
37878;BME280;23715;53.652;8.516;2023-09-19T15:47:24;100527.10;;;21.01;100.00
37878;BME280;23715;53.652;8.516;2023-09-19T15:52:27;100517.20;;;21.00;100.00
37878;BME280;23715;53.652;8.516;2023-09-19T15:57:30;100517.63;;;21.03;100.00
37878;BME280;23715;53.652;8.516;2023-09-19T16:02:35;100510.91;;;20.93;100.00
37878;BME280;23715;53.652;8.516;2023-09-19T16:07:33;100516.16;;;20.88;100.00
37878;BME280;23715;53.652;8.516;2023-09-19T16:12:33;100503.52;;;20.86;100.00
37878;BME280;23715;53.652;8.516;2023-09-19T16:17:34;100503.07;;;20.70;100.00
37878;BME280;23715;53.652;8.516;2023-09-19T16:22:34;100514.23;;;20.68;100.00
37878;BME280;23715;53.652;8.516;2023-09-19T16:27:41;100524.53;;;20.66;100.00
37878;BME280;23715;53.652;8.516;2023-09-19T16:32:41;100527.06;;;20.74;100.00
37878;BME280;23715;53.652;8.516;2023-09-19T16:37:46;100520.23;;;20.74;100.00
37878;BME280;23715;53.652;8.516;2023-09-19T16:42:54;100522.66;;;20.80;100.00
37878;BME280;23715;53.652;8.516;2023-09-19T16:47:56;100531.13;;;20.67;100.00
37878;BME280;23715;53.652;8.516;2023-09-19T16:52:56;100531.80;;;20.76;100.00
37878;BME280;23715;53.652;8.516;2023-09-19T16:57:58;100553.22;;;20.66;100.00
37878;BME280;23715;53.652;8.516;2023-09-19T17:03:03;100551.48;;;20.58;100.00
37878;BME280;23715;53.652;8.516;2023-09-19T17:08:07;100565.31;;;20.74;100.00
37878;BME280;23715;53.652;8.516;2023-09-19T17:13:14;100558.19;;;20.80;100.00
37878;BME280;23715;53.652;8.516;2023-09-19T17:18:23;100574.64;;;20.69;100.00
37878;BME280;23715;53.652;8.516;2023-09-19T17:23:22;100568.17;;;20.59;100.00
37878;BME280;23715;53.652;8.516;2023-09-19T17:28:29;100573.39;;;20.47;100.00
37878;BME280;23715;53.652;8.516;2023-09-19T17:33:34;100577.30;;;20.56;100.00
37878;BME280;23715;53.652;8.516;2023-09-19T17:38:37;100582.61;;;20.64;100.00
37878;BME280;23715;53.652;8.516;2023-09-19T17:43:38;100562.11;;;20.64;100.00
37878;BME280;23715;53.652;8.516;2023-09-19T17:48:40;100569.98;;;20.94;100.00
37878;BME280;23715;53.652;8.516;2023-09-19T17:53:43;100553.85;;;20.75;100.00
37878;BME280;23715;53.652;8.516;2023-09-19T17:58:48;100576.15;;;20.78;100.00
37878;BME280;23715;53.652;8.516;2023-09-19T18:03:50;100601.03;;;20.66;100.00
37878;BME280;23715;53.652;8.516;2023-09-19T18:08:54;100597.38;;;20.76;100.00
37878;BME280;23715;53.652;8.516;2023-09-19T18:13:56;100594.75;;;20.79;100.00
37878;BME280;23715;53.652;8.516;2023-09-19T18:18:58;100597.22;;;20.60;100.00
37878;BME280;23715;53.652;8.516;2023-09-19T18:23:59;100625.69;;;20.62;100.00
37878;BME280;23715;53.652;8.516;2023-09-19T18:29:02;100622.80;;;20.53;100.00
37878;BME280;23715;53.652;8.516;2023-09-19T18:34:04;100640.05;;;20.36;100.00
37878;BME280;23715;53.652;8.516;2023-09-19T18:39:09;100633.72;;;20.18;100.00
37878;BME280;23715;53.652;8.516;2023-09-19T18:44:09;100636.70;;;20.05;100.00
37878;BME280;23715;53.652;8.516;2023-09-19T18:49:10;100631.97;;;20.03;100.00
37878;BME280;23715;53.652;8.516;2023-09-19T18:54:12;100641.52;;;20.21;100.00
37878;BME280;23715;53.652;8.516;2023-09-19T18:59:12;100629.51;;;20.33;100.00
37878;BME280;23715;53.652;8.516;2023-09-19T19:04:16;100622.93;;;20.38;100.00
37878;BME280;23715;53.652;8.516;2023-09-19T19:09:24;100636.03;;;20.56;100.00
37878;BME280;23715;53.652;8.516;2023-09-19T19:14:26;100629.84;;;20.34;100.00
37878;BME280;23715;53.652;8.516;2023-09-19T19:19:23;100618.22;;;20.60;100.00
37878;BME280;23715;53.652;8.516;2023-09-19T19:24:27;100622.75;;;20.46;100.00
37878;BME280;23715;53.652;8.516;2023-09-19T19:29:29;100633.14;;;20.46;100.00
37878;BME280;23715;53.652;8.516;2023-09-19T19:39:40;100626.39;;;20.36;100.00
37878;BME280;23715;53.652;8.516;2023-09-19T19:44:40;100620.46;;;20.50;100.00
37878;BME280;23715;53.652;8.516;2023-09-19T19:49:43;100629.84;;;20.58;100.00
37878;BME280;23715;53.652;8.516;2023-09-19T19:54:45;100617.53;;;20.51;100.00
37878;BME280;23715;53.652;8.516;2023-09-19T19:59:47;100625.82;;;20.47;100.00
37878;BME280;23715;53.652;8.516;2023-09-19T20:04:50;100643.61;;;20.19;100.00
37878;BME280;23715;53.652;8.516;2023-09-19T20:09:52;100632.77;;;20.32;100.00
37878;BME280;23715;53.652;8.516;2023-09-19T20:14:54;100638.62;;;20.29;100.00
37878;BME280;23715;53.652;8.516;2023-09-19T20:19:58;100639.91;;;20.16;100.00
37878;BME280;23715;53.652;8.516;2023-09-19T20:25:03;100648.34;;;20.03;100.00
37878;BME280;23715;53.652;8.516;2023-09-19T20:30:06;100662.08;;;20.17;100.00
37878;BME280;23715;53.652;8.516;2023-09-19T20:35:07;100659.28;;;19.82;100.00
37878;BME280;23715;53.652;8.516;2023-09-19T20:40:09;100679.07;;;19.69;100.00
37878;BME280;23715;53.652;8.516;2023-09-19T20:45:10;100684.41;;;19.66;100.00
37878;BME280;23715;53.652;8.516;2023-09-19T20:50:15;100690.64;;;19.49;100.00
37878;BME280;23715;53.652;8.516;2023-09-19T20:55:16;100691.50;;;19.39;100.00
37878;BME280;23715;53.652;8.516;2023-09-19T21:00:19;100688.84;;;19.35;100.00
37878;BME280;23715;53.652;8.516;2023-09-19T21:05:19;100695.44;;;19.37;100.00
37878;BME280;23715;53.652;8.516;2023-09-19T21:10:28;100702.20;;;19.30;100.00
37878;BME280;23715;53.652;8.516;2023-09-19T21:15:30;100691.10;;;19.31;100.00
37878;BME280;23715;53.652;8.516;2023-09-19T21:20:55;100690.59;;;19.06;100.00
37878;BME280;23715;53.652;8.516;2023-09-19T21:26:09;100701.33;;;19.19;100.00
37878;BME280;23715;53.652;8.516;2023-09-19T21:32:05;100695.85;;;19.08;100.00
37878;BME280;23715;53.652;8.516;2023-09-19T21:37:51;100707.09;;;19.20;100.00
37878;BME280;23715;53.652;8.516;2023-09-19T21:43:34;100698.67;;;19.15;100.00
37878;BME280;23715;53.652;8.516;2023-09-19T21:54:58;100694.66;;;19.32;100.00
37878;BME280;23715;53.652;8.516;2023-09-19T22:00:06;100703.62;;;19.37;100.00
37878;BME280;23715;53.652;8.516;2023-09-19T22:05:30;100697.87;;;19.46;100.00
37878;BME280;23715;53.652;8.516;2023-09-19T22:10:45;100705.94;;;19.29;100.00
37878;BME280;23715;53.652;8.516;2023-09-19T22:16:01;100715.64;;;19.31;100.00
37878;BME280;23715;53.652;8.516;2023-09-19T22:21:01;100702.22;;;19.41;100.00
37878;BME280;23715;53.652;8.516;2023-09-19T22:26:05;100706.50;;;19.61;100.00
37878;BME280;23715;53.652;8.516;2023-09-19T22:31:19;100702.54;;;19.53;100.00
37878;BME280;23715;53.652;8.516;2023-09-19T22:36:32;100703.02;;;19.78;100.00
37878;BME280;23715;53.652;8.516;2023-09-19T22:41:48;100707.09;;;19.56;100.00
37878;BME280;23715;53.652;8.516;2023-09-19T22:46:48;100713.09;;;19.77;100.00
37878;BME280;23715;53.652;8.516;2023-09-19T22:51:52;100701.01;;;19.76;100.00
37878;BME280;23715;53.652;8.516;2023-09-19T22:56:55;100699.76;;;19.89;100.00
37878;BME280;23715;53.652;8.516;2023-09-19T23:01:56;100701.16;;;19.63;100.00
37878;BME280;23715;53.652;8.516;2023-09-19T23:06:57;100712.19;;;19.81;100.00
37878;BME280;23715;53.652;8.516;2023-09-19T23:12:02;100706.24;;;19.88;100.00
37878;BME280;23715;53.652;8.516;2023-09-19T23:17:04;100703.89;;;19.63;100.00
37878;BME280;23715;53.652;8.516;2023-09-19T23:22:16;100706.30;;;19.62;100.00
37878;BME280;23715;53.652;8.516;2023-09-19T23:27:18;100702.94;;;19.71;100.00
37878;BME280;23715;53.652;8.516;2023-09-19T23:32:20;100708.05;;;19.59;100.00
37878;BME280;23715;53.652;8.516;2023-09-19T23:37:28;100705.66;;;19.60;100.00
37878;BME280;23715;53.652;8.516;2023-09-19T23:42:36;100711.02;;;19.90;100.00
37878;BME280;23715;53.652;8.516;2023-09-19T23:47:52;100700.41;;;19.80;100.00
37878;BME280;23715;53.652;8.516;2023-09-19T23:52:53;100711.50;;;19.68;100.00
37878;BME280;23715;53.652;8.516;2023-09-19T23:57:56;100692.67;;;19.84;100.00
